createdAt,value
2023-09-19T12:44:01.536Z,69.70
2023-09-19T12:46:29.200Z,69.70
2023-09-19T12:49:18.343Z,69.43
2023-09-19T12:51:50.634Z,69.19
2023-09-19T12:54:18.124Z,68.90
2023-09-19T12:56:48.805Z,67.52
2023-09-19T12:59:16.916Z,67.59
2023-09-19T13:01:50.466Z,65.74
2023-09-19T13:04:26.792Z,66.43
2023-09-19T13:06:56.019Z,67.54
2023-09-19T13:09:35.256Z,67.79
2023-09-19T13:12:03.952Z,69.20
2023-09-19T13:14:41.548Z,67.60
2023-09-19T13:17:20.418Z,67.23
2023-09-19T13:19:56.523Z,65.82
2023-09-19T13:22:50.698Z,66.89
2023-09-19T13:25:20.291Z,68.10
2023-09-19T13:27:56.758Z,68.39
2023-09-19T13:30:26.543Z,67.82
2023-09-19T13:33:05.743Z,67.25
2023-09-19T13:35:34.897Z,67.73
2023-09-19T13:38:04.266Z,69.06
2023-09-19T13:40:36.132Z,69.30
2023-09-19T13:43:04.561Z,69.03
2023-09-19T13:45:31.914Z,68.90
2023-09-19T13:48:00.588Z,67.54
2023-09-19T13:50:30.376Z,67.79
2023-09-19T13:53:01.803Z,67.68
2023-09-19T13:55:29.411Z,66.21
2023-09-19T13:57:58.646Z,66.87
2023-09-19T14:00:26.383Z,66.86
2023-09-19T14:02:54.031Z,66.46
2023-09-19T14:05:21.934Z,67.10
2023-09-19T14:07:51.580Z,68.05
2023-09-19T14:10:19.006Z,68.45
2023-09-19T14:12:46.774Z,68.61
2023-09-19T14:15:15.089Z,68.59
2023-09-19T14:17:49.334Z,68.21
2023-09-19T14:20:16.733Z,68.12
2023-09-19T14:22:44.397Z,67.60
2023-09-19T14:25:11.582Z,67.77
2023-09-19T14:27:39.861Z,67.68
2023-09-19T14:30:08.506Z,67.09
2023-09-19T14:32:37.053Z,65.94
2023-09-19T14:35:04.624Z,66.20
2023-09-19T14:37:32.608Z,66.16
2023-09-19T14:40:00.235Z,66.13
2023-09-19T14:42:27.301Z,66.50
2023-09-19T14:44:56.590Z,66.95
2023-09-19T14:47:24.935Z,67.28
2023-09-19T14:49:52.566Z,67.75
2023-09-19T14:52:20.530Z,69.01
2023-09-19T14:54:48.143Z,69.68
2023-09-19T14:57:15.905Z,69.86
2023-09-19T14:59:43.756Z,70.07
2023-09-19T15:02:11.063Z,71.45
2023-09-19T15:04:42.246Z,71.56
2023-09-19T15:07:10.523Z,72.81
2023-09-19T15:09:37.621Z,74.19
2023-09-19T15:12:07.263Z,74.38
2023-09-19T15:14:34.588Z,75.12
2023-09-19T15:17:01.714Z,75.33
2023-09-19T15:19:28.790Z,74.61
2023-09-19T15:21:56.852Z,75.04
2023-09-19T15:24:23.986Z,74.49
2023-09-19T15:26:52.165Z,74.14
2023-09-19T15:29:22.276Z,73.71
2023-09-19T15:31:50.989Z,74.26
2023-09-19T15:34:18.625Z,74.03
2023-09-19T15:36:47.037Z,74.37
2023-09-19T15:39:16.577Z,75.11
2023-09-19T15:41:47.184Z,74.90
2023-09-19T15:44:16.869Z,74.69
2023-09-19T15:46:45.725Z,74.39
2023-09-19T15:49:14.316Z,74.30
2023-09-19T15:51:44.226Z,74.32
2023-09-19T15:54:16.491Z,74.44
2023-09-19T15:56:45.974Z,73.86
2023-09-19T15:59:14.378Z,74.38
2023-09-19T16:01:45.900Z,75.09
2023-09-19T16:04:13.984Z,75.83
2023-09-19T16:06:43.391Z,76.81
2023-09-19T16:09:11.427Z,77.46
2023-09-19T16:11:39.248Z,77.85
2023-09-19T16:14:07.879Z,78.16
2023-09-19T16:16:37.496Z,79.12
2023-09-19T16:19:10.971Z,79.70
2023-09-19T16:21:44.916Z,80.15
2023-09-19T16:24:12.396Z,80.54
2023-09-19T16:26:41.010Z,81.50
2023-09-19T16:29:14.882Z,82.07
2023-09-19T16:31:42.795Z,83.17
2023-09-19T16:34:10.665Z,83.54
2023-09-19T16:36:39.276Z,84.38
2023-09-19T16:39:08.806Z,85.32
2023-09-19T16:41:36.009Z,86.57
2023-09-19T16:44:03.308Z,87.88
2023-09-19T16:46:30.978Z,88.04
2023-09-19T16:49:03.580Z,88.35
2023-09-19T16:51:33.497Z,88.97
2023-09-19T16:54:00.902Z,90.65
2023-09-19T16:56:29.628Z,91.38
2023-09-19T16:58:57.104Z,91.67
2023-09-19T17:01:26.230Z,92.21
2023-09-19T17:03:54.640Z,92.84
2023-09-19T17:06:25.687Z,93.84
2023-09-19T17:08:52.800Z,94.20
2023-09-19T17:11:21.745Z,94.68
2023-09-19T17:13:52.754Z,95.51
2023-09-19T17:16:24.448Z,96.12
2023-09-19T17:18:57.405Z,97.58
2023-09-19T17:21:27.126Z,97.73
2023-09-19T17:23:56.450Z,98.26
2023-09-19T17:26:26.270Z,98.64
2023-09-19T17:28:54.786Z,99.08
2023-09-19T17:31:25.932Z,99.40
2023-09-19T17:33:55.263Z,100.00
2023-09-19T17:36:26.402Z,100.00
2023-09-19T17:38:56.576Z,100.00
2023-09-19T17:41:26.820Z,100.00
2023-09-19T17:43:58.093Z,100.00
2023-09-19T17:46:29.315Z,100.00
2023-09-19T17:48:59.087Z,100.00
2023-09-19T17:51:28.334Z,100.00
2023-09-19T17:54:02.185Z,100.00
2023-09-19T17:56:30.071Z,100.00
2023-09-19T17:58:58.246Z,100.00
2023-09-19T18:01:29.728Z,100.00
2023-09-19T18:04:03.059Z,100.00
2023-09-19T18:06:35.054Z,100.00
2023-09-19T18:09:08.693Z,100.00
2023-09-19T18:11:37.101Z,100.00
2023-09-19T18:14:04.798Z,100.00
2023-09-19T18:16:33.743Z,100.00
2023-09-19T18:19:03.020Z,100.00
2023-09-19T18:21:33.357Z,100.00
2023-09-19T18:24:15.219Z,100.00
2023-09-19T18:26:45.005Z,100.00
2023-09-19T18:29:12.271Z,100.00
2023-09-19T18:31:41.267Z,100.00
2023-09-19T18:34:11.279Z,100.00
2023-09-19T18:36:39.025Z,100.00
2023-09-19T18:39:09.091Z,100.00
2023-09-19T18:41:42.423Z,100.00
2023-09-19T18:44:11.821Z,100.00
2023-09-19T18:46:50.090Z,100.00
2023-09-19T18:49:17.377Z,100.00
2023-09-19T18:51:45.769Z,100.00
2023-09-19T18:54:14.335Z,100.00
2023-09-19T18:56:45.294Z,100.00
2023-09-19T18:59:14.833Z,100.00
2023-09-19T19:01:44.929Z,100.00
2023-09-19T19:04:13.880Z,100.00
2023-09-19T19:06:44.303Z,100.00
2023-09-19T19:09:11.396Z,100.00
2023-09-19T19:11:39.742Z,100.00
2023-09-19T19:14:08.498Z,100.00
2023-09-19T19:16:38.521Z,100.00
2023-09-19T19:19:09.506Z,100.00
2023-09-19T19:21:38.302Z,100.00
2023-09-19T19:24:06.263Z,100.00
2023-09-19T19:26:34.207Z,100.00
2023-09-19T19:29:01.262Z,100.00
2023-09-19T19:31:29.459Z,100.00
2023-09-19T19:33:58.717Z,100.00
2023-09-19T19:36:27.602Z,100.00
2023-09-19T19:38:56.520Z,100.00
2023-09-19T19:41:24.176Z,100.00
2023-09-19T19:43:52.746Z,100.00
2023-09-19T19:46:20.288Z,100.00
2023-09-19T19:48:53.009Z,100.00
2023-09-19T19:51:20.745Z,100.00
2023-09-19T19:53:48.514Z,100.00
2023-09-19T19:56:16.177Z,100.00
2023-09-19T19:58:43.698Z,100.00
2023-09-19T20:01:11.704Z,100.00
2023-09-19T20:03:39.523Z,100.00
2023-09-19T20:06:07.195Z,100.00
2023-09-19T20:08:34.710Z,100.00
2023-09-19T20:11:07.671Z,100.00
2023-09-19T20:13:36.136Z,100.00
2023-09-19T20:16:05.281Z,100.00
2023-09-19T20:18:34.080Z,100.00
2023-09-19T20:21:11.182Z,100.00
2023-09-19T20:23:40.897Z,100.00
2023-09-19T20:26:08.203Z,100.00
2023-09-19T20:28:35.962Z,100.00
2023-09-19T20:31:12.639Z,100.00
2023-09-19T20:33:40.118Z,100.00
2023-09-19T20:36:11.140Z,100.00
2023-09-19T20:38:39.618Z,100.00
2023-09-19T20:41:11.322Z,100.00
2023-09-19T20:43:42.043Z,100.00
2023-09-19T20:46:12.423Z,100.00
2023-09-19T20:48:44.377Z,100.00
2023-09-19T20:51:14.583Z,100.00
2023-09-19T20:53:47.599Z,100.00
2023-09-19T20:56:16.117Z,100.00
2023-09-19T20:58:45.690Z,100.00
2023-09-19T21:01:13.919Z,100.00
2023-09-19T21:03:41.231Z,100.00
2023-09-19T21:06:14.719Z,100.00
2023-09-19T21:08:45.924Z,100.00
2023-09-19T21:11:16.651Z,100.00
2023-09-19T21:13:46.609Z,100.00
2023-09-19T21:16:16.988Z,100.00
2023-09-19T21:18:46.829Z,100.00
2023-09-19T21:21:15.180Z,100.00
2023-09-19T21:23:45.235Z,100.00
2023-09-19T21:26:13.974Z,100.00
2023-09-19T21:28:42.345Z,100.00
2023-09-19T21:31:10.220Z,100.00
2023-09-19T21:33:39.564Z,100.00
2023-09-19T21:36:15.425Z,100.00
2023-09-19T21:38:42.699Z,100.00
2023-09-19T21:41:12.863Z,100.00
2023-09-19T21:43:41.268Z,100.00
2023-09-19T21:46:09.610Z,100.00
2023-09-19T21:48:37.679Z,100.00
2023-09-19T21:51:07.954Z,100.00
2023-09-19T21:53:36.104Z,100.00
2023-09-19T21:56:06.178Z,100.00
2023-09-19T21:58:36.414Z,100.00
2023-09-19T22:01:07.557Z,100.00
2023-09-19T22:03:39.996Z,100.00
2023-09-19T22:06:17.967Z,100.00
2023-09-19T22:08:50.865Z,100.00
2023-09-19T22:11:22.144Z,100.00
2023-09-19T22:13:52.767Z,100.00
2023-09-19T22:16:21.457Z,100.00
2023-09-19T22:18:52.071Z,100.00
2023-09-19T22:21:21.060Z,100.00
2023-09-19T22:23:48.421Z,100.00
2023-09-19T22:26:20.223Z,100.00
2023-09-19T22:28:51.607Z,100.00
2023-09-19T22:31:24.349Z,100.00
2023-09-19T22:33:56.446Z,100.00
2023-09-19T22:36:32.013Z,100.00
2023-09-19T22:39:01.552Z,100.00
2023-09-19T22:41:29.712Z,100.00
2023-09-19T22:43:57.952Z,100.00
2023-09-19T22:46:29.163Z,100.00
2023-09-19T22:48:57.406Z,100.00
2023-09-19T22:51:37.275Z,100.00
2023-09-19T22:54:12.597Z,100.00
2023-09-19T22:56:41.178Z,100.00
2023-09-19T22:59:09.215Z,100.00
2023-09-19T23:01:37.516Z,100.00
2023-09-19T23:04:15.480Z,100.00
2023-09-19T23:06:49.648Z,100.00
2023-09-19T23:09:26.069Z,100.00
2023-09-19T23:12:07.423Z,100.00
2023-09-19T23:14:39.855Z,100.00
2023-09-19T23:17:15.630Z,100.00
2023-09-19T23:19:49.195Z,100.00
2023-09-19T23:22:19.653Z,100.00
2023-09-19T23:24:51.088Z,100.00
2023-09-19T23:27:26.051Z,100.00
2023-09-19T23:29:56.246Z,100.00
2023-09-19T23:32:23.728Z,100.00
2023-09-19T23:34:51.251Z,100.00
2023-09-19T23:37:22.350Z,100.00
2023-09-19T23:39:52.143Z,100.00
2023-09-19T23:42:20.237Z,100.00
2023-09-19T23:44:52.086Z,100.00
2023-09-19T23:47:19.844Z,100.00
2023-09-19T23:49:50.597Z,100.00
2023-09-19T23:52:18.919Z,100.00
2023-09-19T23:54:51.353Z,100.00
2023-09-19T23:57:18.871Z,100.00
2023-09-19T23:59:46.471Z,100.00
